Terminal Aerodrome Forecast
Issued by NWS

Home | Current Version | Previous Version | Text Only | Print | Product List | Glossary On
Versions: 1 2 3 4 5 6 7 8 9 10 11 12 13 14 15 16 17 18 19 20 21 22 23 24 25 26 27 28 29 30 31 32 33
000
FTUS41 KOKX 201122
TAFSWF
TAF
KSWF 201122Z 2012/2118 24007KT P6SM FEW200 WS020/27050KT
     FM201600 27012G21KT P6SM FEW200
     FM202300 28007KT P6SM FEW200
     FM210600 31003KT P6SM FEW020 SCT200
     FM211500 VRB03KT P6SM SCT020 SCT150
      AMD NOT SKED=

USA.gov is the U.S. government's official web portal to all federal, state and local government web resources and services.